Time;durP1;ratioP1;P1;durP2;ratioP2;P2;SDS_P1;SDS_P2;PMS_P1;PMS_P2;Temp;Humidity;BMP_temperature;BMP_pressure;BME280_temperature;BME280_humidity;BME280_pressure;Samples;Min_cycle;Max_cycle;Signal;HPM_P1;HPM_P2
2024/02/09 00:00:21;;;;;;;6.97;4.00;;;;;;;;;;5072145;28;20059;-76
2024/02/09 00:02:47;;;;;;;5.57;3.33;;;;;;;;;;5082152;28;20029;-76
2024/02/09 00:05:14;;;;;;;9.45;5.95;;;;;;;;;;5082322;28;20107;-76
2024/02/09 00:07:39;;;;;;;9.80;5.88;;;;;;;;;;5075188;28;20100;-75
2024/02/09 00:10:05;;;;;;;8.40;5.40;;;;;;;;;;5073433;28;20489;-76
2024/02/09 00:12:30;;;;;;;8.15;5.10;;;;;;;;;;5073558;28;20028;-76
2024/02/09 00:14:57;;;;;;;7.97;4.82;;;;;;;;;;5073279;28;20096;-76
2024/02/09 00:17:23;;;;;;;7.75;4.70;;;;;;;;;;5073922;28;20094;-76
2024/02/09 00:19:48;;;;;;;8.48;5.43;;;;;;;;;;5076904;28;20563;-76
2024/02/09 00:22:13;;;;;;;7.70;4.80;;;;;;;;;;5073949;28;20043;-75
2024/02/09 00:24:42;;;;;;;8.05;3.75;;;;;;;;;;5072778;28;20032;-76
2024/02/09 00:27:07;;;;;;;7.03;4.18;;;;;;;;;;5080556;28;20040;-76
2024/02/09 00:29:33;;;;;;;7.25;4.55;;;;;;;;;;5072898;28;20134;-76
2024/02/09 00:31:58;;;;;;;6.47;4.00;;;;;;;;;;5074653;28;20553;-76
2024/02/09 00:34:23;;;;;;;6.70;3.60;;;;;;;;;;5079921;28;20024;-76
2024/02/09 00:36:49;;;;;;;7.03;3.83;;;;;;;;;;5073105;28;20108;-76
2024/02/09 00:39:15;;;;;;;7.00;3.83;;;;;;;;;;5072726;28;20076;-76
2024/02/09 00:41:40;;;;;;;7.05;3.75;;;;;;;;;;5072414;28;20060;-76
2024/02/09 00:44:05;;;;;;;6.50;3.58;;;;;;;;;;5072665;28;20036;-76
2024/02/09 00:46:32;;;;;;;6.50;3.70;;;;;;;;;;5072952;28;20051;-76
2024/02/09 00:49:02;;;;;;;5.47;3.15;;;;;;;;;;5074404;28;20505;-76
2024/02/09 00:51:28;;;;;;;5.63;3.13;;;;;;;;;;5072668;28;20036;-76
2024/02/09 00:53:53;;;;;;;6.50;3.72;;;;;;;;;;5072441;28;20470;-76
2024/02/09 00:56:18;;;;;;;5.75;3.05;;;;;;;;;;5072103;28;20086;-76
2024/02/09 00:58:44;;;;;;;6.72;3.30;;;;;;;;;;5075159;28;20037;-76
2024/02/09 01:01:09;;;;;;;7.78;3.97;;;;;;;;;;5072377;28;20041;-76
2024/02/09 01:03:35;;;;;;;6.30;3.33;;;;;;;;;;5076784;28;20104;-76
2024/02/09 01:06:00;;;;;;;5.53;3.58;;;;;;;;;;5072696;28;20448;-76
2024/02/09 01:08:27;;;;;;;5.75;3.33;;;;;;;;;;5075931;28;20040;-76
2024/02/09 01:10:53;;;;;;;7.53;3.92;;;;;;;;;;5072195;28;20039;-76
2024/02/09 02:46:13;;;;;;;6.50;3.58;;;;;;;;;;5070810;28;20386;-76
2024/02/09 03:05:24;;;;;;;6.00;3.63;;;;;;;;;;5072512;28;20159;-76
2024/02/09 03:07:49;;;;;;;5.75;3.38;;;;;;;;;;5077078;28;20032;-76
2024/02/09 03:10:14;;;;;;;7.43;4.60;;;;;;;;;;5074734;28;20032;-76
2024/02/09 03:12:40;;;;;;;6.55;3.65;;;;;;;;;;5070316;28;20026;-76
2024/02/09 03:15:06;;;;;;;6.53;4.18;;;;;;;;;;5069919;28;20040;-76
2024/02/09 03:17:32;;;;;;;6.32;4.07;;;;;;;;;;5070238;28;20035;-76
2024/02/09 03:20:00;;;;;;;5.45;3.53;;;;;;;;;;5073904;28;20525;-76
2024/02/09 03:22:26;;;;;;;6.68;3.80;;;;;;;;;;5068799;28;20044;-76
2024/02/09 03:24:51;;;;;;;5.60;3.08;;;;;;;;;;5069910;28;20078;-76
2024/02/09 03:27:17;;;;;;;6.05;3.63;;;;;;;;;;5070175;28;20117;-76
2024/02/09 03:29:42;;;;;;;6.85;4.15;;;;;;;;;;5075002;28;20044;-76
2024/02/09 03:32:09;;;;;;;6.45;3.63;;;;;;;;;;5072924;28;20028;-76
2024/02/09 03:34:34;;;;;;;6.28;3.95;;;;;;;;;;5071151;28;20032;-76
2024/02/09 03:36:59;;;;;;;7.47;4.25;;;;;;;;;;5080413;28;20033;-76
2024/02/09 03:39:25;;;;;;;10.25;6.10;;;;;;;;;;5076465;28;20395;-76
2024/02/09 03:41:50;;;;;;;8.40;5.57;;;;;;;;;;5069948;28;20025;-76
2024/02/09 03:44:15;;;;;;;8.88;5.75;;;;;;;;;;5068406;28;20040;-76
2024/02/09 03:46:40;;;;;;;8.98;5.57;;;;;;;;;;5069938;28;20404;-76
2024/02/09 03:49:06;;;;;;;8.02;5.47;;;;;;;;;;5076554;28;20233;-76
2024/02/09 03:51:31;;;;;;;9.05;5.88;;;;;;;;;;5069506;28;20111;-76
2024/02/09 03:53:57;;;;;;;7.95;4.57;;;;;;;;;;5078423;28;20065;-76
2024/02/09 03:56:22;;;;;;;7.43;5.22;;;;;;;;;;5080291;28;20046;-76
2024/02/09 03:58:47;;;;;;;6.85;4.80;;;;;;;;;;5081046;28;20111;-76
2024/02/09 04:01:13;;;;;;;7.25;4.88;;;;;;;;;;5072291;28;20051;-76
2024/02/09 04:03:39;;;;;;;11.45;7.03;;;;;;;;;;5077078;28;20017;-76
2024/02/09 04:06:05;;;;;;;8.38;5.47;;;;;;;;;;5070256;28;20522;-76
2024/02/09 04:08:30;;;;;;;8.10;5.07;;;;;;;;;;5072885;28;20058;-76
2024/02/09 04:10:56;;;;;;;7.72;4.97;;;;;;;;;;5075212;28;20035;-76
2024/02/09 04:13:21;;;;;;;9.95;6.10;;;;;;;;;;5071477;28;20059;-76
2024/02/09 04:15:46;;;;;;;8.77;5.40;;;;;;;;;;5081625;28;20407;-76
2024/02/09 04:18:12;;;;;;;7.53;5.10;;;;;;;;;;5075276;28;20107;-76
2024/02/09 04:20:37;;;;;;;7.95;4.90;;;;;;;;;;5072357;28;20082;-77
2024/02/09 04:23:02;;;;;;;7.35;4.50;;;;;;;;;;5070284;28;20400;-78
2024/02/09 04:25:27;;;;;;;7.93;4.88;;;;;;;;;;5071983;28;20039;-77
2024/02/09 04:27:53;;;;;;;7.68;4.53;;;;;;;;;;5076818;28;20043;-77
2024/02/09 04:30:21;;;;;;;7.70;5.03;;;;;;;;;;5076137;28;20028;-77
2024/02/09 04:32:46;;;;;;;9.07;5.45;;;;;;;;;;5074299;28;20077;-77
2024/02/09 04:35:13;;;;;;;7.30;4.75;;;;;;;;;;5081146;28;20025;-77
2024/02/09 04:37:38;;;;;;;7.85;5.15;;;;;;;;;;5073379;28;20028;-76
2024/02/09 04:40:04;;;;;;;6.65;4.50;;;;;;;;;;5077785;28;20020;-76
2024/02/09 04:42:29;;;;;;;7.13;4.30;;;;;;;;;;5072973;28;20061;-76
2024/02/09 04:44:54;;;;;;;7.30;4.82;;;;;;;;;;5072787;28;20039;-76
2024/02/09 04:47:19;;;;;;;5.90;3.70;;;;;;;;;;5073277;28;20036;-76
2024/02/09 04:49:44;;;;;;;7.20;4.25;;;;;;;;;;5078284;28;20110;-76
2024/02/09 04:52:11;;;;;;;7.25;4.63;;;;;;;;;;5072791;28;20029;-76
2024/02/09 04:54:37;;;;;;;8.07;5.25;;;;;;;;;;5072400;28;20021;-76
2024/02/09 04:57:02;;;;;;;7.82;5.32;;;;;;;;;;5072896;28;20028;-76
2024/02/09 04:59:30;;;;;;;8.52;5.07;;;;;;;;;;5078487;28;20044;-75
2024/02/09 05:01:55;;;;;;;7.07;4.50;;;;;;;;;;5077592;28;20025;-76
2024/02/09 05:04:21;;;;;;;8.65;5.40;;;;;;;;;;5080010;28;20036;-76
2024/02/09 05:06:46;;;;;;;8.75;5.75;;;;;;;;;;5077855;28;20032;-76
2024/02/09 05:09:11;;;;;;;8.80;6.35;;;;;;;;;;5078092;28;20036;-76
2024/02/09 05:11:37;;;;;;;7.30;5.32;;;;;;;;;;5073230;28;20060;-76
2024/02/09 05:14:08;;;;;;;8.00;5.10;;;;;;;;;;5076163;28;20047;-76
2024/02/09 05:16:36;;;;;;;7.88;4.78;;;;;;;;;;5076531;28;20040;-76
2024/02/09 05:19:01;;;;;;;6.35;4.50;;;;;;;;;;5076941;28;20028;-76
2024/02/09 05:21:26;;;;;;;9.13;5.72;;;;;;;;;;5076314;28;20728;-76
2024/02/09 05:23:51;;;;;;;18.85;11.38;;;;;;;;;;5084154;28;20028;-76
2024/02/09 05:26:17;;;;;;;12.45;8.20;;;;;;;;;;5086820;28;20403;-76
2024/02/09 05:28:44;;;;;;;8.38;5.22;;;;;;;;;;5084063;28;20051;-76
2024/02/09 05:31:16;;;;;;;7.78;5.28;;;;;;;;;;5078408;28;20106;-76
2024/02/09 05:33:41;;;;;;;6.07;4.18;;;;;;;;;;5080423;28;20038;-76
2024/02/09 05:36:07;;;;;;;7.95;4.47;;;;;;;;;;5076133;28;20036;-76
2024/02/09 05:38:32;;;;;;;7.53;4.65;;;;;;;;;;5076990;28;20056;-79
2024/02/09 05:40:57;;;;;;;7.30;4.75;;;;;;;;;;5077923;28;20036;-76
2024/02/09 05:43:23;;;;;;;8.90;6.13;;;;;;;;;;5076141;28;20103;-76
2024/02/09 05:45:48;;;;;;;8.93;5.57;;;;;;;;;;5079445;28;20449;-76
2024/02/09 05:48:16;;;;;;;6.95;4.45;;;;;;;;;;5091093;28;20036;-76
2024/02/09 05:50:41;;;;;;;6.63;4.13;;;;;;;;;;5080754;28;20032;-76
2024/02/09 05:53:07;;;;;;;6.40;4.28;;;;;;;;;;5077052;28;20036;-76
2024/02/09 05:55:33;;;;;;;7.25;4.85;;;;;;;;;;5072550;28;20099;-75
2024/02/09 05:57:58;;;;;;;7.60;4.80;;;;;;;;;;5084316;28;20725;-76
2024/02/09 06:00:24;;;;;;;9.07;5.65;;;;;;;;;;5080323;28;20067;-76
2024/02/09 06:02:51;;;;;;;7.78;5.18;;;;;;;;;;5083035;28;20020;-76
2024/02/09 06:05:16;;;;;;;8.20;5.35;;;;;;;;;;5074589;28;20400;-76
2024/02/09 06:07:41;;;;;;;8.27;5.38;;;;;;;;;;5077797;28;20028;-76
2024/02/09 06:10:09;;;;;;;44.67;26.42;;;;;;;;;;5075925;28;20138;-76
2024/02/09 06:12:35;;;;;;;13.35;9.38;;;;;;;;;;5076862;28;20481;-76
2024/02/09 06:15:00;;;;;;;8.95;5.70;;;;;;;;;;5076068;28;20095;-76
2024/02/09 06:17:25;;;;;;;10.23;5.70;;;;;;;;;;5078152;28;20114;-76
2024/02/09 06:19:51;;;;;;;7.97;5.40;;;;;;;;;;5083027;28;20028;-76
2024/02/09 06:22:16;;;;;;;8.90;5.53;;;;;;;;;;5069199;28;20052;-76
2024/02/09 06:24:41;;;;;;;8.20;5.22;;;;;;;;;;5074244;28;20035;-76
2024/02/09 06:27:06;;;;;;;8.85;5.10;;;;;;;;;;5071098;28;20051;-76
2024/02/09 06:29:32;;;;;;;8.73;4.82;;;;;;;;;;5077452;28;20039;-76
2024/02/09 06:31:58;;;;;;;9.07;5.15;;;;;;;;;;5080292;28;20028;-76
2024/02/09 06:34:24;;;;;;;10.52;5.22;;;;;;;;;;5074668;28;20036;-76
2024/02/09 06:36:49;;;;;;;8.90;5.45;;;;;;;;;;5072816;28;20029;-76
2024/02/09 06:39:15;;;;;;;7.32;4.95;;;;;;;;;;5079002;28;20024;-76
2024/02/09 06:41:40;;;;;;;8.05;5.03;;;;;;;;;;5070444;28;20502;-76
2024/02/09 06:44:05;;;;;;;9.45;5.75;;;;;;;;;;5076840;28;20020;-76
2024/02/09 06:46:31;;;;;;;9.88;5.40;;;;;;;;;;5072736;28;20559;-76
2024/02/09 06:48:56;;;;;;;10.23;6.75;;;;;;;;;;5076350;28;20097;-76
2024/02/09 06:51:22;;;;;;;10.10;6.70;;;;;;;;;;5068969;28;20028;-76
2024/02/09 06:53:47;;;;;;;9.85;5.57;;;;;;;;;;5073453;28;20036;-76
2024/02/09 06:56:12;;;;;;;7.80;5.22;;;;;;;;;;5076889;28;20032;-76
2024/02/09 06:58:39;;;;;;;10.15;6.00;;;;;;;;;;5074626;28;20081;-76
2024/02/09 07:01:09;;;;;;;7.80;5.15;;;;;;;;;;5073822;28;20028;-76
2024/02/09 07:03:35;;;;;;;8.93;5.03;;;;;;;;;;5075401;28;20107;-76
2024/02/09 07:06:03;;;;;;;8.90;5.55;;;;;;;;;;5070417;28;20099;-76
2024/02/09 07:08:36;;;;;;;10.15;6.03;;;;;;;;;;5074315;28;20116;-76
2024/02/09 07:11:02;;;;;;;8.70;5.32;;;;;;;;;;5071339;28;20034;-76
2024/02/09 07:13:28;;;;;;;7.63;4.80;;;;;;;;;;5069970;28;20111;-76
2024/02/09 07:15:53;;;;;;;9.43;5.95;;;;;;;;;;5070253;28;20093;-76
2024/02/09 07:18:18;;;;;;;10.27;6.80;;;;;;;;;;5073066;28;20032;-76
2024/02/09 07:20:43;;;;;;;11.95;6.80;;;;;;;;;;5075104;28;20056;-76
2024/02/09 07:23:09;;;;;;;9.44;5.84;;;;;;;;;;5073929;28;20403;-76
2024/02/09 07:25:34;;;;;;;12.80;7.40;;;;;;;;;;5075349;28;20070;-76
2024/02/09 07:27:59;;;;;;;10.43;6.82;;;;;;;;;;5069595;28;20037;-76
2024/02/09 07:30:25;;;;;;;8.82;5.47;;;;;;;;;;5073300;28;20033;-76
2024/02/09 07:32:50;;;;;;;8.98;5.45;;;;;;;;;;5075279;28;20119;-76
2024/02/09 07:35:15;;;;;;;9.50;6.60;;;;;;;;;;5069932;28;20095;-76
2024/02/09 07:37:40;;;;;;;11.52;7.32;;;;;;;;;;5070179;28;20020;-76
2024/02/09 07:40:08;;;;;;;11.13;6.60;;;;;;;;;;5073256;28;20052;-76
2024/02/09 07:42:33;;;;;;;12.23;6.88;;;;;;;;;;5077312;28;20377;-75
2024/02/09 07:44:59;;;;;;;10.38;5.95;;;;;;;;;;5069720;28;20039;-76
2024/02/09 07:47:24;;;;;;;10.00;6.28;;;;;;;;;;5070586;28;20028;-76
2024/02/09 07:49:49;;;;;;;12.80;7.15;;;;;;;;;;5079201;28;20035;-76
2024/02/09 07:52:14;;;;;;;12.00;5.78;;;;;;;;;;5076912;28;20027;-76
2024/02/09 07:54:39;;;;;;;11.38;6.32;;;;;;;;;;5075767;28;20017;-76
2024/02/09 07:57:06;;;;;;;17.08;7.75;;;;;;;;;;5071966;28;20021;-76
2024/02/09 07:59:31;;;;;;;10.40;5.85;;;;;;;;;;5073199;28;20048;-76
2024/02/09 08:01:56;;;;;;;12.02;7.03;;;;;;;;;;5081013;28;20032;-76
2024/02/09 08:04:22;;;;;;;12.05;6.78;;;;;;;;;;5080682;28;20533;-76
2024/02/09 08:06:50;;;;;;;11.93;7.30;;;;;;;;;;5070844;28;20123;-76
2024/02/09 08:09:15;;;;;;;13.95;7.22;;;;;;;;;;5080075;28;20120;-76
2024/02/09 08:11:42;;;;;;;12.10;7.28;;;;;;;;;;5079931;28;20540;-76
2024/02/09 08:14:07;;;;;;;12.85;7.55;;;;;;;;;;5072871;28;20098;-76
2024/02/09 08:16:32;;;;;;;14.48;9.38;;;;;;;;;;5081941;28;20016;-76
2024/02/09 08:18:58;;;;;;;10.90;6.22;;;;;;;;;;5086210;28;20381;-76
2024/02/09 08:21:23;;;;;;;11.82;6.20;;;;;;;;;;5079339;28;20545;-76
2024/02/09 08:23:49;;;;;;;14.70;6.93;;;;;;;;;;5075062;28;20079;-76
2024/02/09 08:26:14;;;;;;;12.00;6.72;;;;;;;;;;5073449;28;20037;-76
2024/02/09 08:28:43;;;;;;;12.65;8.27;;;;;;;;;;5076280;28;20500;-76
2024/02/09 08:31:15;;;;;;;10.98;6.25;;;;;;;;;;5084918;28;20041;-76
2024/02/09 08:33:43;;;;;;;15.18;7.25;;;;;;;;;;5081958;28;20110;-76
2024/02/09 08:36:12;;;;;;;12.25;5.40;;;;;;;;;;5073249;28;20081;-76
2024/02/09 08:38:38;;;;;;;11.82;6.50;;;;;;;;;;5074519;28;20032;-76
2024/02/09 08:41:04;;;;;;;12.00;4.70;;;;;;;;;;5077978;28;20081;-76
2024/02/09 08:43:29;;;;;;;12.50;4.65;;;;;;;;;;5073262;28;20033;-76
2024/02/09 08:45:55;;;;;;;9.10;3.47;;;;;;;;;;5083716;28;20035;-76
2024/02/09 08:48:20;;;;;;;5.88;2.97;;;;;;;;;;5074612;28;20035;-76
2024/02/09 08:50:45;;;;;;;6.10;2.10;;;;;;;;;;5073860;28;20032;-76
2024/02/09 08:53:11;;;;;;;8.60;2.90;;;;;;;;;;5072895;28;20496;-76
2024/02/09 08:55:36;;;;;;;6.65;2.20;;;;;;;;;;5072578;28;20024;-76
2024/02/09 08:58:04;;;;;;;5.38;2.17;;;;;;;;;;5073100;28;20028;-76
2024/02/09 09:00:29;;;;;;;4.13;1.27;;;;;;;;;;5075160;28;20040;-76
2024/02/09 09:02:55;;;;;;;4.13;1.30;;;;;;;;;;5077143;28;20037;-76
2024/02/09 09:05:20;;;;;;;5.63;1.27;;;;;;;;;;5072671;28;20028;-76
2024/02/09 09:07:45;;;;;;;6.22;1.60;;;;;;;;;;5072386;28;20041;-76
2024/02/09 09:10:11;;;;;;;4.55;1.23;;;;;;;;;;5075353;28;20041;-76
2024/02/09 09:12:38;;;;;;;5.82;1.38;;;;;;;;;;5072698;28;20032;-76
2024/02/09 09:15:04;;;;;;;3.72;1.00;;;;;;;;;;5072492;28;20438;-76
2024/02/09 09:17:29;;;;;;;3.63;0.93;;;;;;;;;;5071542;28;20021;-76
2024/02/09 09:19:55;;;;;;;3.42;1.02;;;;;;;;;;5073391;28;20090;-75
2024/02/09 09:22:20;;;;;;;3.75;0.82;;;;;;;;;;5071875;28;20106;-76
2024/02/09 09:24:46;;;;;;;1.95;0.95;;;;;;;;;;5071951;28;20123;-76
2024/02/09 09:27:11;;;;;;;3.38;0.70;;;;;;;;;;5074834;28;20050;-76
2024/02/09 09:29:36;;;;;;;4.80;1.27;;;;;;;;;;5081902;28;20124;-76
2024/02/09 09:32:02;;;;;;;2.33;0.90;;;;;;;;;;5079336;28;20285;-76
2024/02/09 09:34:27;;;;;;;4.93;1.50;;;;;;;;;;5077242;28;20361;-75
2024/02/09 09:36:52;;;;;;;3.22;1.50;;;;;;;;;;5071603;28;20027;-76
2024/02/09 09:39:17;;;;;;;3.63;1.13;;;;;;;;;;5083224;28;20468;-76
2024/02/09 09:41:43;;;;;;;2.95;0.90;;;;;;;;;;5081284;28;20048;-77
2024/02/09 09:44:08;;;;;;;3.15;0.70;;;;;;;;;;5078623;28;20131;-76
2024/02/09 09:46:37;;;;;;;3.95;1.27;;;;;;;;;;5071816;28;20036;-76
2024/02/09 09:49:03;;;;;;;5.40;0.60;;;;;;;;;;5074918;28;20032;-76
2024/02/09 09:51:33;;;;;;;4.70;0.88;;;;;;;;;;5077878;28;20155;-76
2024/02/09 09:54:00;;;;;;;3.42;1.00;;;;;;;;;;5075554;28;20067;-76
2024/02/09 09:56:26;;;;;;;3.90;1.40;;;;;;;;;;5079949;28;20024;-76
2024/02/09 09:58:51;;;;;;;6.03;1.42;;;;;;;;;;5081675;28;20035;-76
2024/02/09 10:01:16;;;;;;;4.55;1.38;;;;;;;;;;5074964;28;20040;-76
2024/02/09 10:03:42;;;;;;;3.40;0.90;;;;;;;;;;5083519;28;20063;-76
2024/02/09 10:06:07;;;;;;;3.80;0.98;;;;;;;;;;5071572;28;20036;-76
2024/02/09 10:08:35;;;;;;;2.30;0.75;;;;;;;;;;5072847;28;20181;-76
2024/02/09 10:11:01;;;;;;;2.17;0.80;;;;;;;;;;5071095;28;20020;-76
2024/02/09 10:13:27;;;;;;;4.13;0.98;;;;;;;;;;5071186;28;20040;-76
2024/02/09 10:15:55;;;;;;;2.50;1.00;;;;;;;;;;5071334;28;20029;-76
2024/02/09 10:18:20;;;;;;;4.15;1.00;;;;;;;;;;5070180;28;20107;-76
2024/02/09 10:20:46;;;;;;;3.53;0.77;;;;;;;;;;5072663;28;20453;-76
2024/02/09 10:23:20;;;;;;;2.28;0.80;;;;;;;;;;5069374;28;20060;-76
2024/02/09 10:25:46;;;;;;;3.10;1.30;;;;;;;;;;5078719;28;20125;-76
2024/02/09 10:28:12;;;;;;;2.50;1.02;;;;;;;;;;5071213;28;20512;-76
2024/02/09 10:30:37;;;;;;;5.22;1.35;;;;;;;;;;5073690;28;20024;-77
2024/02/09 10:33:03;;;;;;;2.47;0.98;;;;;;;;;;5078896;28;20115;-77
2024/02/09 10:35:30;;;;;;;3.42;0.98;;;;;;;;;;5070914;28;20032;-77
2024/02/09 10:37:57;;;;;;;4.03;1.48;;;;;;;;;;5071659;28;20031;-76
2024/02/09 10:40:23;;;;;;;4.57;1.23;;;;;;;;;;5074553;28;20515;-77
2024/02/09 10:42:50;;;;;;;3.70;1.00;;;;;;;;;;5070728;28;20056;-76
2024/02/09 10:45:15;;;;;;;3.20;0.73;;;;;;;;;;5070715;28;20047;-76
2024/02/09 10:47:43;;;;;;;1.95;0.50;;;;;;;;;;5069213;28;20497;-76
2024/02/09 10:50:10;;;;;;;3.03;0.82;;;;;;;;;;5068473;28;20056;-77
2024/02/09 10:52:37;;;;;;;5.40;1.50;;;;;;;;;;5069744;28;20036;-76
2024/02/09 10:55:05;;;;;;;2.75;1.10;;;;;;;;;;5074504;28;20029;-77
2024/02/09 10:57:33;;;;;;;2.30;0.88;;;;;;;;;;5069479;28;20492;-77
2024/02/09 11:00:00;;;;;;;1.90;0.70;;;;;;;;;;5078526;28;20044;-77
2024/02/09 11:02:26;;;;;;;1.55;0.55;;;;;;;;;;5074511;28;20024;-78
2024/02/09 11:04:53;;;;;;;1.27;0.50;;;;;;;;;;5073132;28;20047;-77
2024/02/09 11:07:19;;;;;;;1.95;0.63;;;;;;;;;;5078038;28;20044;-77
2024/02/09 11:09:44;;;;;;;1.70;0.70;;;;;;;;;;5078551;28;20484;-77
2024/02/09 11:12:13;;;;;;;1.05;0.50;;;;;;;;;;5072019;28;20099;-77
2024/02/09 11:14:39;;;;;;;1.67;0.60;;;;;;;;;;5070013;28;20040;-77
2024/02/09 11:17:06;;;;;;;3.15;0.90;;;;;;;;;;5071032;28;20021;-77
2024/02/09 11:19:35;;;;;;;1.85;0.60;;;;;;;;;;5079310;28;20039;-77
2024/02/09 11:22:01;;;;;;;2.08;0.95;;;;;;;;;;5076001;28;20042;-77
2024/02/09 11:24:27;;;;;;;1.55;0.60;;;;;;;;;;5069972;28;20123;-77
2024/02/09 11:26:52;;;;;;;3.25;0.93;;;;;;;;;;5070097;28;20097;-77
2024/02/09 11:29:18;;;;;;;4.25;2.20;;;;;;;;;;5070978;28;20098;-77
2024/02/09 11:31:50;;;;;;;3.33;1.80;;;;;;;;;;5071635;28;20035;-77
2024/02/09 11:34:21;;;;;;;2.95;1.02;;;;;;;;;;5089180;28;20024;-77
2024/02/09 11:36:47;;;;;;;2.90;0.68;;;;;;;;;;5077177;28;20060;-77
2024/02/09 11:39:12;;;;;;;2.38;0.90;;;;;;;;;;5080155;28;20060;-77
2024/02/09 11:41:39;;;;;;;2.53;0.63;;;;;;;;;;5077131;28;20063;-77
2024/02/09 11:44:05;;;;;;;1.33;0.60;;;;;;;;;;5085227;28;20505;-77
2024/02/09 11:46:30;;;;;;;1.92;0.50;;;;;;;;;;5080050;28;20063;-77
2024/02/09 11:48:56;;;;;;;1.85;0.50;;;;;;;;;;5073244;28;20119;-77
2024/02/09 11:51:21;;;;;;;2.65;0.70;;;;;;;;;;5087018;28;20055;-77
2024/02/09 11:53:50;;;;;;;1.63;0.57;;;;;;;;;;5079695;28;20060;-77
2024/02/09 11:56:16;;;;;;;2.95;0.80;;;;;;;;;;5071491;28;20020;-77
2024/02/09 11:58:41;;;;;;;3.33;1.30;;;;;;;;;;5070661;28;20477;-77
2024/02/09 12:01:07;;;;;;;2.47;0.95;;;;;;;;;;5076410;28;20040;-77
2024/02/09 12:03:32;;;;;;;1.85;0.82;;;;;;;;;;5074870;28;20028;-77
2024/02/09 12:05:58;;;;;;;2.83;0.90;;;;;;;;;;5072709;28;20488;-77
2024/02/09 12:08:23;;;;;;;2.78;1.05;;;;;;;;;;5070107;28;20032;-77
2024/02/09 12:10:50;;;;;;;2.03;0.75;;;;;;;;;;5070743;28;20040;-77
2024/02/09 12:13:15;;;;;;;3.38;0.68;;;;;;;;;;5070016;28;20045;-77
2024/02/09 12:15:40;;;;;;;1.27;0.40;;;;;;;;;;5069972;28;20024;-77
2024/02/09 12:18:08;;;;;;;2.35;0.90;;;;;;;;;;5070117;28;20393;-77
2024/02/09 12:20:33;;;;;;;2.78;0.90;;;;;;;;;;5074054;28;20802;-77
2024/02/09 12:23:00;;;;;;;3.88;0.90;;;;;;;;;;5069555;28;20032;-77
2024/02/09 12:25:25;;;;;;;1.58;0.70;;;;;;;;;;5069524;28;20025;-77
2024/02/09 12:27:58;;;;;;;2.23;0.73;;;;;;;;;;5074187;28;20039;-77
2024/02/09 12:30:25;;;;;;;2.75;0.88;;;;;;;;;;5076536;28;20295;-77
2024/02/09 12:32:51;;;;;;;2.75;0.77;;;;;;;;;;5073584;28;20041;-77
2024/02/09 12:35:25;;;;;;;3.28;0.88;;;;;;;;;;5069546;28;20055;-77
2024/02/09 12:37:51;;;;;;;3.72;1.02;;;;;;;;;;5069725;28;20032;-76
2024/02/09 12:40:16;;;;;;;3.03;1.02;;;;;;;;;;5076276;28;20024;-77
2024/02/09 12:42:41;;;;;;;25.88;15.70;;;;;;;;;;5068315;28;20032;-76
2024/02/09 12:45:07;;;;;;;4.38;1.73;;;;;;;;;;5069461;28;20040;-77
2024/02/09 12:47:32;;;;;;;3.58;1.10;;;;;;;;;;5069475;28;20028;-77
2024/02/09 12:49:57;;;;;;;2.87;0.80;;;;;;;;;;5073895;28;20031;-77
2024/02/09 12:52:25;;;;;;;5.28;1.58;;;;;;;;;;5068189;28;20287;-76
2024/02/09 12:54:51;;;;;;;3.55;1.00;;;;;;;;;;5071521;28;20032;-76
2024/02/09 12:57:18;;;;;;;3.45;1.27;;;;;;;;;;5073177;28;20040;-76
2024/02/09 12:59:43;;;;;;;3.25;1.42;;;;;;;;;;5080116;28;20040;-77
2024/02/09 13:02:10;;;;;;;3.95;1.45;;;;;;;;;;5075900;28;20050;-76
2024/02/09 13:04:35;;;;;;;4.22;1.75;;;;;;;;;;5063400;28;20040;-77
2024/02/09 13:07:00;;;;;;;5.43;1.80;;;;;;;;;;5072833;28;20024;-77
2024/02/09 13:09:26;;;;;;;6.88;1.50;;;;;;;;;;5080665;28;20036;-77
2024/02/09 13:11:51;;;;;;;3.67;1.20;;;;;;;;;;5072846;28;20127;-77
2024/02/09 13:14:19;;;;;;;3.72;1.77;;;;;;;;;;5072236;28;20028;-77
2024/02/09 13:16:45;;;;;;;6.68;1.63;;;;;;;;;;5072593;28;20158;-77
2024/02/09 13:19:11;;;;;;;2.65;1.60;;;;;;;;;;5076570;28;20102;-77
2024/02/09 13:21:36;;;;;;;5.35;1.02;;;;;;;;;;5075340;28;20026;-77
2024/02/09 13:24:06;;;;;;;5.00;1.27;;;;;;;;;;5072000;28;20127;-76
2024/02/09 13:26:33;;;;;;;3.35;1.25;;;;;;;;;;5072663;28;20044;-77
2024/02/09 13:28:58;;;;;;;5.75;1.98;;;;;;;;;;5074664;28;20044;-76
2024/02/09 13:31:23;;;;;;;3.72;0.90;;;;;;;;;;5076896;28;20032;-76
2024/02/09 13:33:49;;;;;;;4.50;1.63;;;;;;;;;;5077666;28;20029;-76
2024/02/09 13:36:14;;;;;;;5.28;1.45;;;;;;;;;;5075877;28;20270;-76
2024/02/09 13:38:39;;;;;;;4.05;1.60;;;;;;;;;;5069816;28;20037;-76
2024/02/09 13:41:04;;;;;;;5.90;2.03;;;;;;;;;;5077120;28;20028;-76
2024/02/09 13:43:29;;;;;;;5.15;1.52;;;;;;;;;;5070721;28;20295;-76
2024/02/09 13:45:56;;;;;;;4.10;1.95;;;;;;;;;;5078185;28;20033;-76
2024/02/09 13:48:21;;;;;;;6.72;2.03;;;;;;;;;;5070654;28;20485;-76
2024/02/09 13:50:47;;;;;;;7.30;2.22;;;;;;;;;;5085928;28;20070;-76
2024/02/09 13:53:13;;;;;;;4.95;2.35;;;;;;;;;;5072166;28;20070;-76
2024/02/09 13:55:39;;;;;;;5.55;1.70;;;;;;;;;;5070385;28;20485;-76
2024/02/09 13:58:06;;;;;;;5.53;2.00;;;;;;;;;;5071617;28;20021;-77
2024/02/09 14:00:31;;;;;;;5.82;2.60;;;;;;;;;;5078161;28;20332;-76
2024/02/09 14:02:56;;;;;;;5.32;2.13;;;;;;;;;;5076508;28;20123;-76
2024/02/09 14:05:21;;;;;;;5.80;2.37;;;;;;;;;;5071178;28;20053;-76
2024/02/09 14:07:48;;;;;;;6.80;2.88;;;;;;;;;;5071193;28;20278;-76
2024/02/09 14:10:14;;;;;;;3.70;1.63;;;;;;;;;;5077393;28;20033;-76
2024/02/09 14:12:39;;;;;;;4.03;1.77;;;;;;;;;;5070107;28;20028;-76
2024/02/09 14:15:05;;;;;;;6.85;2.00;;;;;;;;;;5071547;28;20043;-76
2024/02/09 14:17:31;;;;;;;12.70;6.05;;;;;;;;;;5075216;28;20399;-76
2024/02/09 14:19:57;;;;;;;8.02;2.92;;;;;;;;;;5075574;28;20025;-76
2024/02/09 14:22:23;;;;;;;5.15;2.20;;;;;;;;;;5077179;28;20036;-76
2024/02/09 14:24:48;;;;;;;4.95;2.30;;;;;;;;;;5077207;28;20431;-76
2024/02/09 14:27:14;;;;;;;6.00;2.70;;;;;;;;;;5073039;28;20040;-76
2024/02/09 14:29:39;;;;;;;8.30;2.35;;;;;;;;;;5077063;28;20412;-76
2024/02/09 14:32:08;;;;;;;7.47;3.33;;;;;;;;;;5073415;28;20025;-76
2024/02/09 14:34:33;;;;;;;5.03;2.20;;;;;;;;;;5072706;28;20024;-76
2024/02/09 14:36:58;;;;;;;5.93;2.17;;;;;;;;;;5070966;28;20758;-76
2024/02/09 14:39:23;;;;;;;8.23;2.47;;;;;;;;;;5075571;28;20262;-76
2024/02/09 14:41:49;;;;;;;4.13;1.60;;;;;;;;;;5071945;28;20663;-76
2024/02/09 14:44:15;;;;;;;8.70;2.20;;;;;;;;;;5069196;28;20274;-76
2024/02/09 14:46:42;;;;;;;7.43;2.40;;;;;;;;;;5070818;28;20408;-76
2024/02/09 14:49:09;;;;;;;7.20;2.08;;;;;;;;;;5073121;28;20731;-76
2024/02/09 14:51:37;;;;;;;9.13;2.28;;;;;;;;;;5072671;28;20388;-76
2024/02/09 14:54:02;;;;;;;4.97;2.15;;;;;;;;;;5074236;28;20017;-76
2024/02/09 14:56:28;;;;;;;7.32;2.70;;;;;;;;;;5070523;28;20507;-76
2024/02/09 14:58:55;;;;;;;4.88;1.90;;;;;;;;;;5069536;28;20058;-76
2024/02/09 15:01:21;;;;;;;5.68;2.20;;;;;;;;;;5075027;28;20032;-76
2024/02/09 15:03:47;;;;;;;5.55;1.75;;;;;;;;;;5075624;28;20047;-76
2024/02/09 15:06:13;;;;;;;5.82;2.08;;;;;;;;;;5073278;28;20408;-76
2024/02/09 15:08:38;;;;;;;4.15;1.30;;;;;;;;;;5070085;28;20085;-76
2024/02/09 15:11:04;;;;;;;5.82;1.75;;;;;;;;;;5075842;28;20524;-76
2024/02/09 15:13:29;;;;;;;3.80;1.48;;;;;;;;;;5070268;28;20545;-76
2024/02/09 15:15:54;;;;;;;7.60;1.73;;;;;;;;;;5069503;28;20021;-76
2024/02/09 15:18:20;;;;;;;4.55;1.83;;;;;;;;;;5070358;28;20480;-76
2024/02/09 15:20:47;;;;;;;5.68;1.55;;;;;;;;;;5074356;28;20082;-76
2024/02/09 15:23:12;;;;;;;5.75;1.50;;;;;;;;;;5070039;28;20016;-76
2024/02/09 15:25:38;;;;;;;3.25;1.38;;;;;;;;;;5069666;28;20382;-76
2024/02/09 15:28:03;;;;;;;6.28;1.45;;;;;;;;;;5074309;28;20107;-76
2024/02/09 15:30:28;;;;;;;3.85;1.23;;;;;;;;;;5074431;28;20108;-76
2024/02/09 15:32:53;;;;;;;7.10;1.38;;;;;;;;;;5073595;28;20037;-76
2024/02/09 15:35:19;;;;;;;4.15;1.50;;;;;;;;;;5070061;28;20032;-76
2024/02/09 15:37:44;;;;;;;6.55;1.55;;;;;;;;;;5074629;28;20028;-76
2024/02/09 15:40:10;;;;;;;4.28;1.52;;;;;;;;;;5074879;28;20070;-76
2024/02/09 15:42:35;;;;;;;3.83;1.50;;;;;;;;;;5070334;28;20628;-76
2024/02/09 15:45:00;;;;;;;6.43;1.90;;;;;;;;;;5068276;28;20038;-76
2024/02/09 15:47:25;;;;;;;5.33;1.73;;;;;;;;;;5070046;28;20029;-76
2024/02/09 15:49:51;;;;;;;5.20;1.40;;;;;;;;;;5081581;28;20294;-76
2024/02/09 15:52:16;;;;;;;5.32;1.73;;;;;;;;;;5076785;28;20024;-76
2024/02/09 15:54:41;;;;;;;7.07;2.25;;;;;;;;;;5072271;28;20111;-76
2024/02/09 15:57:06;;;;;;;5.43;1.83;;;;;;;;;;5069967;28;20044;-76
2024/02/09 15:59:31;;;;;;;7.03;2.10;;;;;;;;;;5074438;28;20278;-76
2024/02/09 16:01:56;;;;;;;4.80;1.80;;;;;;;;;;5071311;28;20286;-76
2024/02/09 16:04:22;;;;;;;7.10;1.83;;;;;;;;;;5072700;28;20021;-76
2024/02/09 16:06:48;;;;;;;5.18;2.00;;;;;;;;;;5068543;28;20275;-76
2024/02/09 16:09:15;;;;;;;3.60;1.33;;;;;;;;;;5076449;28;20103;-76
2024/02/09 16:11:40;;;;;;;5.70;1.80;;;;;;;;;;5071837;28;20020;-76
2024/02/09 16:14:08;;;;;;;4.93;1.77;;;;;;;;;;5069409;28;20515;-76
2024/02/09 16:16:34;;;;;;;5.68;2.03;;;;;;;;;;5069781;28;20102;-77
2024/02/09 16:19:01;;;;;;;4.20;1.75;;;;;;;;;;5075228;28;20020;-76
2024/02/09 16:21:30;;;;;;;5.78;1.70;;;;;;;;;;5070351;28;20612;-76